createdAt,value
2019-05-05T00:02:06.061Z,2.23
2019-05-05T00:04:55.187Z,2.33
2019-05-05T00:07:28.996Z,2.63
2019-05-05T00:09:59.470Z,2.37
2019-05-05T00:12:48.601Z,2.10
2019-05-05T00:15:36.665Z,2.43
2019-05-05T00:18:07.021Z,2.20
2019-05-05T00:20:37.252Z,2.00
2019-05-05T00:23:07.460Z,2.10
2019-05-05T00:25:37.750Z,2.00
2019-05-05T00:28:07.939Z,2.07
2019-05-05T00:30:38.245Z,2.20
2019-05-05T00:33:08.469Z,2.07
2019-05-05T00:35:38.664Z,2.07
2019-05-05T00:38:08.847Z,1.80
2019-05-05T00:40:39.016Z,2.27
2019-05-05T00:43:09.313Z,2.20
2019-05-05T00:45:41.475Z,2.00
2019-05-05T00:48:17.275Z,1.83
2019-05-05T00:50:47.556Z,2.17
2019-05-05T00:53:17.814Z,1.60
2019-05-05T00:55:48.051Z,1.87
2019-05-05T00:58:18.336Z,1.83
2019-05-05T01:00:57.816Z,2.07
2019-05-05T01:03:28.586Z,1.73
2019-05-05T01:06:16.781Z,2.20
2019-05-05T01:08:47.201Z,1.80
2019-05-05T01:11:18.138Z,2.10
2019-05-05T01:13:48.482Z,1.93
2019-05-05T01:16:18.812Z,1.90
2019-05-05T01:18:49.131Z,2.23
2019-05-05T01:21:19.394Z,1.83
2019-05-05T01:23:49.667Z,2.10
2019-05-05T01:26:19.993Z,1.97
2019-05-05T01:28:50.285Z,2.20
2019-05-05T01:31:21.452Z,1.87
2019-05-05T01:34:15.493Z,2.03
2019-05-05T01:36:47.100Z,2.00
2019-05-05T01:39:51.388Z,2.10
2019-05-05T01:42:21.756Z,1.80
2019-05-05T01:44:51.999Z,2.10
2019-05-05T01:47:22.428Z,2.10
2019-05-05T01:49:54.443Z,1.83
2019-05-05T01:52:25.544Z,2.20
2019-05-05T01:54:55.887Z,1.90
2019-05-05T01:57:26.486Z,1.93
2019-05-05T01:59:57.549Z,1.90
2019-05-05T02:02:27.819Z,2.20
2019-05-05T02:04:58.137Z,2.20
2019-05-05T02:07:28.431Z,2.30
2019-05-05T02:10:00.870Z,1.93
2019-05-05T02:12:31.475Z,2.00
2019-05-05T02:15:01.781Z,2.00
2019-05-05T02:17:32.014Z,2.10
2019-05-05T02:20:02.280Z,1.80
2019-05-05T02:22:32.543Z,2.03
2019-05-05T02:25:04.253Z,2.00
2019-05-05T02:27:34.628Z,2.00
2019-05-05T02:30:30.718Z,2.00
2019-05-05T02:33:06.474Z,2.40
2019-05-05T02:35:36.849Z,1.80
2019-05-05T02:38:07.139Z,2.20
2019-05-05T02:40:38.155Z,2.00
2019-05-05T02:43:09.032Z,2.00
2019-05-05T02:46:05.496Z,2.43
2019-05-05T02:48:36.921Z,1.73
2019-05-05T02:51:08.121Z,2.20
2019-05-05T02:53:44.714Z,2.10
2019-05-05T02:56:23.651Z,1.90
2019-05-05T02:58:57.763Z,1.93
2019-05-05T03:01:36.768Z,2.03
2019-05-05T03:04:08.931Z,1.87
2019-05-05T03:06:44.005Z,1.70
2019-05-05T03:09:16.184Z,2.00
2019-05-05T03:11:49.720Z,2.17
2019-05-05T03:14:23.802Z,2.00
2019-05-05T03:16:55.034Z,2.30
2019-05-05T03:19:26.635Z,2.07
2019-05-05T03:21:57.342Z,1.87
2019-05-05T03:24:28.048Z,2.00
2019-05-05T03:26:58.878Z,2.20
2019-05-05T03:29:29.531Z,2.30
2019-05-05T03:32:00.264Z,2.03
2019-05-05T03:34:31.398Z,2.40
2019-05-05T03:37:04.222Z,1.73
2019-05-05T03:39:35.068Z,1.70
2019-05-05T03:42:40.122Z,2.37
2019-05-05T03:45:23.370Z,2.40
2019-05-05T03:47:54.169Z,2.20
2019-05-05T03:50:24.541Z,2.20
2019-05-05T03:52:55.041Z,1.73
2019-05-05T03:55:25.602Z,1.77
2019-05-05T03:57:56.514Z,1.87
2019-05-05T04:01:11.014Z,2.00
2019-05-05T04:03:43.446Z,2.20
2019-05-05T04:06:14.643Z,1.60
2019-05-05T04:08:45.941Z,2.00
2019-05-05T04:11:16.229Z,1.90
2019-05-05T04:13:46.523Z,2.10
2019-05-05T04:16:23.720Z,2.10
2019-05-05T04:18:58.208Z,1.90
2019-05-05T04:21:33.541Z,2.33
2019-05-05T04:24:00.509Z,2.00
2019-05-05T04:26:30.832Z,2.10
2019-05-05T04:29:03.213Z,2.57
2019-05-05T04:31:34.541Z,2.27
2019-05-05T04:34:04.950Z,2.00
2019-05-05T04:36:35.204Z,2.20
2019-05-05T04:39:07.184Z,2.10
2019-05-05T04:41:37.476Z,2.62
2019-05-05T04:44:07.756Z,1.97
2019-05-05T04:46:38.050Z,2.23
2019-05-05T04:49:23.991Z,2.20
2019-05-05T04:51:55.505Z,1.93
2019-05-05T04:54:40.722Z,2.10
2019-05-05T04:57:12.015Z,2.50
2019-05-05T04:59:44.340Z,2.33
2019-05-05T05:02:34.354Z,2.73
2019-05-05T05:05:09.873Z,2.60
2019-05-05T05:07:43.807Z,2.67
2019-05-05T05:10:13.965Z,2.57
2019-05-05T05:12:45.133Z,2.17
2019-05-05T05:15:16.369Z,2.30
2019-05-05T05:17:55.984Z,2.83
2019-05-05T05:20:26.309Z,2.27
2019-05-05T05:22:56.613Z,2.27
2019-05-05T05:25:26.847Z,2.45
2019-05-05T05:27:57.068Z,2.30
2019-05-05T05:30:27.439Z,2.10
2019-05-05T05:32:57.716Z,2.23
2019-05-05T05:35:28.026Z,2.47
2019-05-05T05:37:58.345Z,2.40
2019-05-05T05:40:44.398Z,1.93
2019-05-05T05:43:19.059Z,2.43
2019-05-05T05:46:09.752Z,2.93
2019-05-05T05:48:47.092Z,2.40
2019-05-05T05:51:19.750Z,2.90
2019-05-05T05:53:50.006Z,2.87
2019-05-05T05:56:20.259Z,2.63
2019-05-05T05:58:50.567Z,2.10
2019-05-05T06:01:20.890Z,2.40
2019-05-05T06:03:51.119Z,2.40
2019-05-05T06:06:23.997Z,2.77
2019-05-05T06:08:54.434Z,2.90
2019-05-05T06:11:25.114Z,2.90
2019-05-05T06:13:55.881Z,2.30
2019-05-05T06:16:26.173Z,2.30
2019-05-05T06:18:56.511Z,2.47
2019-05-05T06:21:26.798Z,2.10
2019-05-05T06:23:57.076Z,2.80
2019-05-05T06:26:27.346Z,2.67
2019-05-05T06:28:57.613Z,2.37
2019-05-05T06:31:27.889Z,2.73
2019-05-05T06:33:58.188Z,2.30
2019-05-05T06:36:28.381Z,2.33
2019-05-05T06:38:58.672Z,2.93
2019-05-05T06:41:44.018Z,2.70
2019-05-05T06:44:36.961Z,2.50
2019-05-05T06:47:13.490Z,2.70
2019-05-05T06:49:45.040Z,2.23
2019-05-05T06:52:15.315Z,2.97
2019-05-05T06:54:45.595Z,2.50
2019-05-05T06:57:15.921Z,2.53
2019-05-05T06:59:46.282Z,2.20
2019-05-05T07:02:16.616Z,2.43
2019-05-05T07:04:46.878Z,2.63
2019-05-05T07:07:17.216Z,2.60
2019-05-05T07:09:47.501Z,2.27
2019-05-05T07:12:19.549Z,2.80
2019-05-05T07:14:49.859Z,3.13
2019-05-05T07:17:20.423Z,2.87
2019-05-05T07:19:50.814Z,3.00
2019-05-05T07:22:21.214Z,2.50
2019-05-05T07:24:51.445Z,2.90
2019-05-05T07:27:21.719Z,2.67
2019-05-05T07:29:54.021Z,2.43
2019-05-05T07:32:24.658Z,2.63
2019-05-05T07:35:08.708Z,2.87
2019-05-05T07:37:38.927Z,3.30
2019-05-05T07:40:10.289Z,2.77
2019-05-05T07:42:40.730Z,2.70
2019-05-05T07:45:20.299Z,3.00
2019-05-05T07:47:43.849Z,2.97
2019-05-05T07:50:28.635Z,2.97
2019-05-05T07:52:46.627Z,2.80
2019-05-05T07:55:16.938Z,2.62
2019-05-05T07:57:47.211Z,3.07
2019-05-05T08:00:19.614Z,3.40
2019-05-05T08:02:50.008Z,3.10
2019-05-05T08:05:20.294Z,2.60
2019-05-05T08:07:50.626Z,3.00
2019-05-05T08:10:20.860Z,3.20
2019-05-05T08:12:51.296Z,3.27
2019-05-05T08:15:24.720Z,3.50
2019-05-05T08:18:04.598Z,3.67
2019-05-05T08:20:38.010Z,4.07
2019-05-05T08:23:28.006Z,4.00
2019-05-05T08:25:50.079Z,3.30
2019-05-05T08:28:37.855Z,3.90
2019-05-05T08:31:33.924Z,3.93
2019-05-05T08:34:04.252Z,3.63
2019-05-05T08:36:34.529Z,3.67
2019-05-05T08:39:06.165Z,3.60
2019-05-05T08:41:36.438Z,3.70
2019-05-05T08:44:06.682Z,4.77
2019-05-05T08:46:38.096Z,4.63
2019-05-05T08:49:08.365Z,3.60
2019-05-05T08:51:38.647Z,3.87
2019-05-05T08:54:08.943Z,4.17
2019-05-05T08:56:39.242Z,3.57
2019-05-05T08:59:09.489Z,3.67
2019-05-05T09:01:39.860Z,4.37
2019-05-05T09:04:10.213Z,4.40
2019-05-05T09:06:43.557Z,4.43
2019-05-05T09:09:14.471Z,3.63
2019-05-05T09:11:45.762Z,4.50
2019-05-05T09:14:16.316Z,4.57
2019-05-05T09:16:46.758Z,4.13
2019-05-05T09:19:19.414Z,4.37
2019-05-05T09:21:49.839Z,4.27
2019-05-05T09:24:34.721Z,4.13
2019-05-05T09:27:14.615Z,4.47
2019-05-05T09:29:44.992Z,4.05
2019-05-05T09:32:15.267Z,4.30
2019-05-05T09:34:45.594Z,4.43
2019-05-05T09:37:16.566Z,4.10
2019-05-05T09:39:47.606Z,3.53
2019-05-05T09:42:18.069Z,4.37
2019-05-05T09:44:48.569Z,4.53
2019-05-05T09:47:18.900Z,3.47
2019-05-05T09:49:49.216Z,2.07
2019-05-05T09:52:19.504Z,1.83
2019-05-05T09:54:50.041Z,1.77
2019-05-05T09:57:20.354Z,1.57
2019-05-05T09:59:50.815Z,1.90
2019-05-05T10:02:21.211Z,1.60
2019-05-05T10:04:54.813Z,1.80
2019-05-05T10:07:25.115Z,1.63
2019-05-05T10:09:55.484Z,1.80
2019-05-05T10:12:25.849Z,1.70
2019-05-05T10:14:59.364Z,2.37
2019-05-05T10:17:33.642Z,2.00
2019-05-05T10:20:05.884Z,2.10
2019-05-05T10:22:36.171Z,2.00
2019-05-05T10:25:24.210Z,2.90
2019-05-05T10:27:55.148Z,2.30
2019-05-05T10:30:26.537Z,2.33
2019-05-05T10:32:57.132Z,3.20
2019-05-05T10:35:27.444Z,3.23
2019-05-05T10:37:59.814Z,2.77
2019-05-05T10:40:34.147Z,2.80
2019-05-05T10:43:05.125Z,3.40
2019-05-05T10:45:35.486Z,3.17
2019-05-05T10:48:05.774Z,3.20
2019-05-05T10:50:36.151Z,3.37
2019-05-05T10:53:06.430Z,3.00
2019-05-05T10:55:36.759Z,3.70
2019-05-05T10:58:07.055Z,3.07
2019-05-05T11:00:56.294Z,3.10
2019-05-05T11:03:26.590Z,3.60
2019-05-05T11:05:57.205Z,3.53
2019-05-05T11:08:31.233Z,4.10
2019-05-05T11:11:01.664Z,2.83
2019-05-05T11:13:46.856Z,2.93
2019-05-05T11:16:17.155Z,3.20
2019-05-05T11:18:48.277Z,2.87
2019-05-05T11:21:18.590Z,2.90
2019-05-05T11:23:48.874Z,3.47
2019-05-05T11:26:19.294Z,3.33
2019-05-05T11:28:50.814Z,3.23
2019-05-05T11:31:21.156Z,3.60
2019-05-05T11:33:56.452Z,3.27
2019-05-05T11:36:44.758Z,2.50
2019-05-05T11:39:15.075Z,3.37
2019-05-05T11:41:45.483Z,3.60
2019-05-05T11:44:15.834Z,3.20
2019-05-05T11:46:49.177Z,2.70
2019-05-05T11:49:20.991Z,3.07
2019-05-05T11:51:51.564Z,3.07
2019-05-05T11:54:24.617Z,3.43
2019-05-05T11:57:08.685Z,3.07
2019-05-05T11:59:41.815Z,2.97
2019-05-05T12:02:14.082Z,2.77
2019-05-05T12:04:44.159Z,3.20
2019-05-05T12:07:14.715Z,3.07
2019-05-05T12:09:54.742Z,3.03
2019-05-05T12:12:24.586Z,3.33
2019-05-05T12:14:55.649Z,3.13
2019-05-05T12:17:35.636Z,3.00
2019-05-05T12:20:10.905Z,2.83
2019-05-05T12:22:41.330Z,3.30
2019-05-05T12:25:29.224Z,2.83
2019-05-05T12:28:06.825Z,3.30
2019-05-05T12:30:37.195Z,3.27
2019-05-05T12:33:07.512Z,3.10
2019-05-05T12:35:38.391Z,3.33
2019-05-05T12:38:08.638Z,3.47
2019-05-05T12:40:38.933Z,4.20
2019-05-05T12:43:19.263Z,3.17
2019-05-05T12:45:54.634Z,3.53
2019-05-05T12:48:30.308Z,3.17
2019-05-05T12:51:00.567Z,3.60
2019-05-05T12:53:33.302Z,2.90
2019-05-05T12:56:04.127Z,3.33
2019-05-05T12:58:34.586Z,3.50
2019-05-05T13:01:14.539Z,3.37
2019-05-05T13:03:45.042Z,2.63
2019-05-05T13:06:15.608Z,3.03
2019-05-05T13:08:46.054Z,3.33
2019-05-05T13:11:16.676Z,2.80
2019-05-05T13:13:47.108Z,2.30
2019-05-05T13:16:17.543Z,2.23
2019-05-05T13:18:48.004Z,2.90
2019-05-05T13:21:55.543Z,2.53
2019-05-05T13:24:47.836Z,1.93
2019-05-05T13:27:24.684Z,2.50
2019-05-05T13:29:54.627Z,2.77
2019-05-05T13:32:26.583Z,2.27
2019-05-05T13:34:56.918Z,2.60
2019-05-05T13:37:27.189Z,2.47
2019-05-05T13:39:57.525Z,3.60
2019-05-05T13:42:27.852Z,2.97
2019-05-05T13:45:03.932Z,3.00
2019-05-05T13:47:34.595Z,3.00
2019-05-05T13:50:30.606Z,3.37
2019-05-05T13:53:03.801Z,3.40
2019-05-05T13:55:34.695Z,2.77
2019-05-05T13:58:04.968Z,3.40
2019-05-05T14:00:35.175Z,3.77
2019-05-05T14:03:06.386Z,4.37
2019-05-05T14:05:36.629Z,3.60
2019-05-05T14:08:06.917Z,3.23
2019-05-05T14:10:37.149Z,2.97
2019-05-05T14:13:10.366Z,3.70
2019-05-05T14:15:39.980Z,3.20
2019-05-05T14:18:10.221Z,2.97
2019-05-05T14:20:40.526Z,3.40
2019-05-05T14:23:10.907Z,2.90
2019-05-05T14:25:41.533Z,2.80
2019-05-05T14:28:11.735Z,3.10
2019-05-05T14:30:56.762Z,2.10
2019-05-05T14:33:30.405Z,2.37
2019-05-05T14:36:19.561Z,2.03
2019-05-05T14:38:53.935Z,2.90
2019-05-05T14:41:24.307Z,2.20
2019-05-05T14:43:56.482Z,2.70
2019-05-05T14:46:26.655Z,2.43
2019-05-05T14:48:56.881Z,2.60
2019-05-05T14:51:27.255Z,2.47
2019-05-05T14:53:57.494Z,2.60
2019-05-05T14:56:36.114Z,3.50
2019-05-05T14:59:00.017Z,3.40
2019-05-05T15:01:30.560Z,3.20
2019-05-05T15:04:00.795Z,3.17
2019-05-05T15:06:47.432Z,3.17
2019-05-05T15:09:37.020Z,3.50
2019-05-05T15:12:24.951Z,3.60
2019-05-05T15:14:55.224Z,3.83
2019-05-05T15:17:25.779Z,3.43
2019-05-05T15:19:56.233Z,3.77
2019-05-05T15:22:26.439Z,3.40
2019-05-05T15:24:56.697Z,2.93
2019-05-05T15:27:26.902Z,3.10
2019-05-05T15:29:57.221Z,3.63
2019-05-05T15:32:29.753Z,3.20
2019-05-05T15:35:00.520Z,3.73
2019-05-05T15:37:30.903Z,3.10
2019-05-05T15:40:01.293Z,3.10
2019-05-05T15:42:33.485Z,3.37
2019-05-05T15:45:04.222Z,3.10
2019-05-05T15:47:34.513Z,3.10
2019-05-05T15:50:05.468Z,3.40
2019-05-05T15:56:15.842Z,3.07
2019-05-05T15:58:59.621Z,2.90
2019-05-05T16:04:13.972Z,2.83
2019-05-05T16:08:57.212Z,3.40
2019-05-05T16:15:45.424Z,2.60
2019-05-05T16:18:21.191Z,2.73
2019-05-05T16:20:57.137Z,2.50
2019-05-05T16:23:31.148Z,2.90
2019-05-05T16:26:03.574Z,2.90
2019-05-05T16:28:34.338Z,3.17
2019-05-05T16:31:05.442Z,3.20
2019-05-05T16:33:35.667Z,2.30
2019-05-05T16:36:06.338Z,2.40
2019-05-05T16:38:36.694Z,2.60
2019-05-05T16:41:06.923Z,2.50
2019-05-05T16:43:37.026Z,2.33
2019-05-05T16:46:07.226Z,2.30
2019-05-05T16:48:37.391Z,2.30
2019-05-05T16:51:09.214Z,2.30
2019-05-05T16:53:39.415Z,2.03
2019-05-05T16:56:13.985Z,2.70
2019-05-05T16:58:45.103Z,2.27
2019-05-05T17:01:16.460Z,2.47
2019-05-05T17:03:46.681Z,2.57
2019-05-05T17:06:16.873Z,2.60
2019-05-05T17:08:46.946Z,2.60
2019-05-05T17:11:17.047Z,2.40
2019-05-05T17:14:00.420Z,2.77
2019-05-05T17:16:49.580Z,2.50
2019-05-05T17:19:47.707Z,2.30
2019-05-05T17:22:22.521Z,2.60
2019-05-05T17:24:53.513Z,2.33
2019-05-05T17:27:23.775Z,2.70
2019-05-05T17:29:53.752Z,2.90
2019-05-05T17:32:24.910Z,2.50
2019-05-05T17:34:55.149Z,2.63
2019-05-05T17:37:25.320Z,2.37
2019-05-05T17:40:04.217Z,2.87
2019-05-05T17:42:45.953Z,2.93
2019-05-05T17:45:44.490Z,2.50
2019-05-05T17:48:39.459Z,2.97
2019-05-05T17:51:15.695Z,2.63
2019-05-05T17:54:03.709Z,3.00
2019-05-05T17:56:33.765Z,2.90
2019-05-05T17:59:04.187Z,3.00
2019-05-05T18:01:34.359Z,2.87
2019-05-05T18:04:04.591Z,2.80
2019-05-05T18:06:44.045Z,2.77
2019-05-05T18:09:18.094Z,2.50
2019-05-05T18:12:06.085Z,2.60
2019-05-05T18:14:36.693Z,2.57
2019-05-05T18:17:06.784Z,2.90
2019-05-05T18:19:36.735Z,2.45
2019-05-05T18:22:06.748Z,2.77
2019-05-05T18:24:36.799Z,2.77
2019-05-05T18:27:06.950Z,2.20
2019-05-05T18:29:37.073Z,2.87
2019-05-05T18:32:07.296Z,3.13
2019-05-05T18:34:37.452Z,2.60
2019-05-05T18:37:07.619Z,2.53
2019-05-05T18:39:37.671Z,2.57
2019-05-05T18:42:17.171Z,2.93
2019-05-05T18:44:49.568Z,2.37
2019-05-05T18:47:21.387Z,2.70
2019-05-05T18:49:53.828Z,2.80
2019-05-05T18:52:24.526Z,2.43
2019-05-05T18:54:54.888Z,2.37
2019-05-05T18:57:25.141Z,2.63
2019-05-05T18:59:55.336Z,2.80
2019-05-05T19:02:59.822Z,2.73
2019-05-05T19:05:58.151Z,2.83
2019-05-05T19:08:31.596Z,2.40
2019-05-05T19:11:03.601Z,2.93
2019-05-05T19:13:34.115Z,2.93
2019-05-05T19:16:04.554Z,2.73
2019-05-05T19:18:34.627Z,2.93
2019-05-05T19:21:10.369Z,2.77
2019-05-05T19:23:40.479Z,2.73
2019-05-05T19:26:10.662Z,2.80
2019-05-05T19:28:44.525Z,3.03
2019-05-05T19:31:14.000Z,2.40
2019-05-05T19:33:44.249Z,2.40
2019-05-05T19:36:14.362Z,2.10
2019-05-05T19:38:44.760Z,2.20
2019-05-05T19:41:15.097Z,2.10
2019-05-05T19:43:55.129Z,2.60
2019-05-05T19:46:45.715Z,2.30
2019-05-05T19:49:17.135Z,2.40
2019-05-05T19:51:48.207Z,2.33
2019-05-05T19:54:20.677Z,2.40
2019-05-05T19:56:50.897Z,2.20
2019-05-05T19:59:21.207Z,2.20
2019-05-05T20:01:53.837Z,2.57
2019-05-05T20:04:24.175Z,2.00
2019-05-05T20:06:54.929Z,2.40
2019-05-05T20:09:25.246Z,2.63
2019-05-05T20:11:57.910Z,2.03
2019-05-05T20:14:28.108Z,2.20
2019-05-05T20:17:04.298Z,1.97
2019-05-05T20:19:38.946Z,2.00
2019-05-05T20:22:09.251Z,2.53
2019-05-05T20:24:39.510Z,2.40
2019-05-05T20:27:09.683Z,2.53
2019-05-05T20:29:39.792Z,2.50
2019-05-05T20:32:09.880Z,2.43
2019-05-05T20:35:04.752Z,2.20
2019-05-05T20:37:50.570Z,2.60
2019-05-05T20:40:24.426Z,2.50
2019-05-05T20:42:54.680Z,2.73
2019-05-05T20:45:27.401Z,2.87
2019-05-05T20:47:57.571Z,2.93
2019-05-05T20:50:27.718Z,2.77
2019-05-05T20:52:59.821Z,2.47
2019-05-05T20:55:29.832Z,2.30
2019-05-05T20:58:00.017Z,2.53
2019-05-05T21:00:30.187Z,2.60
2019-05-05T21:03:00.398Z,2.80
2019-05-05T21:05:30.528Z,2.27
2019-05-05T21:08:00.711Z,2.70
2019-05-05T21:10:30.723Z,2.17
2019-05-05T21:13:00.808Z,2.63
2019-05-05T21:15:30.899Z,2.80
2019-05-05T21:18:00.939Z,2.40
2019-05-05T21:20:31.141Z,2.27
2019-05-05T21:23:10.334Z,2.73
2019-05-05T21:25:44.778Z,2.40
2019-05-05T21:28:14.809Z,3.30
2019-05-05T21:30:44.883Z,2.77
2019-05-05T21:33:14.991Z,2.53
2019-05-05T21:35:45.066Z,2.40
2019-05-05T21:38:15.008Z,2.90
2019-05-05T21:40:45.099Z,2.67
2019-05-05T21:43:15.470Z,2.77
2019-05-05T21:45:45.653Z,2.85
2019-05-05T21:48:15.826Z,2.63
2019-05-05T21:50:55.993Z,2.70
2019-05-05T21:53:34.266Z,2.50
2019-05-05T21:56:24.659Z,2.90
2019-05-05T21:58:54.583Z,2.97
2019-05-05T22:01:27.139Z,2.50
2019-05-05T22:03:56.848Z,2.77
2019-05-05T22:06:27.029Z,2.80
2019-05-05T22:08:56.975Z,2.60
2019-05-05T22:11:26.977Z,2.93
2019-05-05T22:13:57.057Z,2.83
2019-05-05T22:16:27.214Z,2.70
2019-05-05T22:18:57.360Z,2.60
2019-05-05T22:21:40.968Z,2.70
2019-05-05T22:24:18.921Z,2.93
2019-05-05T22:26:49.025Z,2.77
2019-05-05T22:29:19.243Z,2.90
2019-05-05T22:31:49.464Z,2.70
2019-05-05T22:34:19.634Z,3.10
2019-05-05T22:36:49.778Z,3.07
2019-05-05T22:39:19.861Z,2.80
2019-05-05T22:41:50.008Z,3.13
2019-05-05T22:44:20.143Z,2.93
2019-05-05T22:46:50.384Z,3.00
2019-05-05T22:49:20.579Z,2.67
2019-05-05T22:51:50.599Z,3.20
2019-05-05T22:54:20.775Z,2.50
2019-05-05T22:56:50.922Z,3.03
2019-05-05T22:59:23.648Z,2.53
2019-05-05T23:01:54.163Z,3.10
2019-05-05T23:04:36.607Z,2.72
2019-05-05T23:07:16.352Z,2.90
2019-05-05T23:09:46.464Z,3.13
2019-05-05T23:12:16.610Z,2.60
2019-05-05T23:14:46.703Z,2.70
2019-05-05T23:17:44.979Z,2.80
2019-05-05T23:20:57.369Z,3.20
2019-05-05T23:23:46.269Z,2.80
2019-05-05T23:26:18.296Z,2.87
2019-05-05T23:28:48.292Z,3.20
2019-05-05T23:31:18.328Z,2.70
2019-05-05T23:33:48.465Z,3.33
2019-05-05T23:36:18.468Z,2.90
2019-05-05T23:38:48.551Z,3.07
2019-05-05T23:41:18.642Z,2.67
2019-05-05T23:43:48.733Z,2.97
2019-05-05T23:46:18.900Z,2.97
2019-05-05T23:48:48.959Z,2.73
2019-05-05T23:51:19.049Z,3.13
2019-05-05T23:53:49.222Z,3.27
2019-05-05T23:56:19.322Z,2.40
2019-05-05T23:58:49.429Z,2.77
